首页
METAR-TAF:

METAR-TAF

机场 :

纳姆迪·阿齐基韦国际机场

阿布贾, 尼日利亚

纬度: 9-00-24N, 经度: 7-15-47E, 海拔: 342米

当前天气观测

该预报发布于1小时和10分钟前的01:00 UTC
静风
温度 23°C
湿度 94%
气压 1014 hPa
能见度10公里或以上
少量云层高于800英尺

METAR: DNAA 250100Z 00000KT 9999 FEW008 23/22 Q1014 NOSIG

时间: 03:10 (02:10 UTC)

预报

该预报发布于3小时和10分钟前的23:00 UTC
预报有效从25日的 00点(UTC)到 26日的 06点(UTC)
风速2节,风向多变
能见度10公里或以上
散云层高于800英尺
成为
从 25日的 08点(UTC)到 25日的 11点(UTC)
风速10节,风向西南
多云层高于1300英尺
成为
从 25日的 13点(UTC)到 25日的 15点(UTC)
风速2节,风向多变
散云层高于1500英尺
短暂存在
从 25日的 17点(UTC)到 25日的 22点(UTC)
散云层高于1200英尺
少量云层高于2000英尺, 积雨云.
雷暴,

TAF: DNAA 242300Z 2500/2606 VRB02KT 9999 SCT008 BECMG 2508/2511 23010KT BKN013 BECMG 2513/2515 VRB02KT SCT015 TEMPO 2517/2522 TS SCT012 FEW020CB

超过4000个机场的气象观测和天气预报(METAR&TAF报告)。

可查询的气象台以黄色和红色小点在地图上表示。

将鼠标移到小点上方,可查看气象台名称。

然后点击查看天气观测和预报。

如需切换地图:点击带黑十字的绿色按钮放大地图;点击带横线的绿色按钮缩小地图;或者点击绿色箭头查看邻近地区的地图。


METAR-TAF: